Slide Mountain Weather observations

Data are for 10 minute period ending at time listed.
 Day   Time   Solar   Ave.   Ave.  Ave.  Vector  Max.    Baro.  
  of    of     Rad.   Air    Rel.  Wind   Wind   Wind   Press.  
Year   Day            Temp.  Hum.  Speed  Dir.   Gust           
2017   (PST)  Kw/m2    F      %     mph   deg.    mph     mb.   
-----------------------------------------------------------------
  80   16:10   0.16   25.4    98   29.1   172     34.5    748.0 
  80   16:20   0.11   24.9    98   30.0   175     36.5    748.0 
  80   16:30   0.11   24.4    98   29.0   175     36.5    749.2 
  80   16:40   0.10   24.1    98   28.3   175     35.6    749.5 
  80   16:50   0.08   23.9    98   31.0   185     37.2    749.1 
  80   17:00   0.06   23.5    97   34.4   166     42.9    748.7 
  80   17:10   0.04   22.5    96   33.8   179     40.5    748.2 
  80   17:20   0.04   21.6    96   33.4   172     39.4    747.8 
  80   17:30   0.02   21.5    96   34.7   166     40.9    747.8 
  80   17:40   0.02   21.9    97   32.0   173     38.8    747.7 
  80   17:50   0.02   22.4    97   30.8   173     37.8    747.6 
  80   18:00   0.01   22.7    97   29.4   174     34.2    747.5 
  80   18:10   0.01   22.7    97   28.3   180     32.7    748.1 
  80   18:20   0.00   22.7    97   29.5   177     34.9    749.3 
  80   18:30   0.00   22.6    97   29.8   180     34.7    749.9 
  80   18:40   0.00   22.5    97   28.2   177     32.3    750.5 
  80   18:50   0.00   22.4    97   27.6   170     33.2    751.0 
  80   19:00   0.00   22.3    97   28.5   164     34.2    750.5 
  80   19:10   0.00   22.2    97   29.5   164     34.9    750.1 
  80   19:20   0.00   21.9    96   29.6   166     35.6    750.7 
  80   19:30   0.00   21.7    96   31.9   182     38.4    750.6 
  80   19:40   0.00   21.6    96   32.5   202     41.0    750.2 
  80   19:50   0.00   21.5    96   35.7   221     42.7    750.8 
  80   20:00   0.00   21.5    96   35.8   229     41.4    750.7 
  80   20:10   0.00   21.3    96   34.2   226     42.3    750.2 
  80   20:20   0.00   20.3    95   33.0   218     40.4    748.7 
  80   20:30   0.00   19.7    94   31.7   221     39.2    749.1 
  80   20:40   0.00   19.6    94   34.8   221     41.4    750.1 
  80   20:50   0.00   19.7    95   36.7   224     42.5    750.8 
  80   21:00   0.00   20.0    95   35.7   218     42.7    750.9 
  80   21:10   0.00   20.1    95   39.2   224     47.5    750.6 
  80   21:20   0.00   20.1    95   40.5   229     48.8    750.5 
  80   21:30   0.00   20.1    95   42.5   236     49.8    750.5 
  80   21:40   0.00   20.1    95   42.2   238     49.5    750.1 
  80   21:50   0.00   20.0    95   38.5   221     45.9    748.9 
  80   22:00   0.00   19.8    95   39.8   226     44.5    748.0 
  80   22:10   0.00   19.8    95   37.8   218     44.2    749.3 
  80   22:20   0.00   19.9    95   36.6   214     45.5    748.1 
  80   22:30   0.00   20.1    95   37.7   216     44.7    749.7 
  80   22:40   0.00   20.3    95   35.3   212     40.9    750.3 
  80   22:50   0.00   20.5    95   34.9   214     41.9    750.6 
  80   23:00   0.00   20.6    95   33.4   215     39.5    749.9 
  80   23:10   0.00   20.6    95   32.5   212     38.4    749.9 
  80   23:20   0.00   20.6    95   32.4   215     37.9    748.6 
  80   23:30   0.00   20.7    96   32.7   218     38.5    746.7 
  80   23:40   0.00   20.9    96   27.9   218     35.4    746.1 
  80   23:50   0.00   20.9    96   27.1   204     33.2    746.3 
  81    0:00   0.00   20.8    96   30.4   210     36.1    746.3 
  81    0:10   0.00   20.8    96   31.3   227     36.8    747.1 
  81    0:20   0.00   20.8    96   29.2   222     36.3    748.1 
  81    0:30   0.00   21.0    96   29.9   230     35.4    748.3 
  81    0:40   0.00   21.1    96   29.8   234     36.8    746.4 
  81    0:50   0.00   21.2    96   28.2   240     33.7    745.7 
  81    1:00   0.00   21.2    96   28.4   235     34.2    745.5 
  81    1:10   0.00   21.2    96   29.5   239     36.2    745.6 
  81    1:20   0.00   21.3    96   28.7   248     35.3    746.0 
  81    1:30   0.00   21.3    96   27.5   235     33.9    746.5 
  81    1:40   0.00   21.3    96   27.1   233     33.9    746.5 
  81    1:50   0.00   21.3    96   27.6   229     38.5    746.4 
  81    2:00   0.00   21.4    96   29.6   245     35.3    746.9 
  81    2:10   0.00   21.3    96   29.2   239     34.8    747.5 
  81    2:20   0.00   21.2    96   27.6   234     37.6    747.3 
  81    2:30   0.00   21.1    96   26.0   224     33.0    747.1 
  81    2:40   0.00   21.0    96   26.0   234     35.0    746.4 
  81    2:50   0.00   20.9    96   24.6   217     31.1    746.4 
  81    3:00   0.00   20.7    95   23.3   214     30.6    746.7 
  81    3:10   0.00   20.5    95   23.6   203     28.1    746.2 
  81    3:20   0.00   20.2    95   23.0   210     28.8    746.4 
  81    3:30   0.00   20.0    95   24.6   203     29.5    746.9 
  81    3:40   0.00   19.7    95   24.8   211     29.2    747.1 
  81    3:50   0.00   19.5    94   24.7   220     28.6    747.5 
  81    4:00   0.00   19.2    94   26.2   213     31.0    747.7 
  81    4:10   0.00   18.9    94   25.9   229     30.7    747.9 
  81    4:20   0.00   18.7    94   25.0   228     30.5    748.6 
  81    4:30   0.00   18.7    94   26.4   213     31.2    749.7 
  81    4:40   0.00   18.8    94   25.4   226     30.8    749.5 
  81    4:50   0.00   19.0    94   25.4   228     29.9    749.8 
  81    5:00   0.00   19.1    94   24.8   228     30.3    749.9 
  81    5:10   0.00   19.2    94   25.9   222     29.9    750.5 
  81    5:20   0.00   19.3    94   25.6   234     30.6    749.7 
  81    5:30   0.00   19.4    94   23.4   238     29.0    750.0 
  81    5:40   0.00   19.6    94   21.7   226     26.8    749.8 
  81    5:50   0.00   19.7    95   16.5   215     23.8    749.8 
  81    6:00   0.00   19.8    95   11.8   219     16.8    749.0 
  81    6:10   0.00   19.9    95    8.6   187     12.4    748.4 
  81    6:20   0.01   20.1    95    6.2   198     10.7    748.2 
  81    6:30   0.02   20.2    95    7.2   197     11.1    747.3 
  81    6:40   0.01   20.3    95    7.2   194     10.6    747.3 
  81    6:50   0.02   20.4    95    6.4   201      9.6    746.3 
  81    7:00   0.03   20.6    95    5.2   186      8.5    744.2 
  81    7:10   0.03   20.7    95    5.6   206      7.6    743.0 
  81    7:20   0.04   20.8    96    5.8   206      8.3    742.4 
  81    7:30   0.09   21.0    96    7.2   254      9.2    741.8 
  81    7:40   0.08   21.3    96    6.3   202      8.3    741.0 
  81    7:50   0.09   21.6    96    6.7   235      9.6    738.5 
  81    8:00   0.09   21.8    96    5.3   224      7.1    740.0 
  81    8:10   0.09   21.9    97    6.0   174      7.7    742.8 
  81    8:20   0.07   22.0    97    5.9   191      9.5    744.6 
  81    8:30   0.07   22.0    97    5.6   225      8.3    745.0 
  81    8:40   0.12   21.9    97    6.9   205     10.0    744.6 
  81    8:50   0.19   22.1    97    6.5   184     10.9    742.6 
  81    9:00   0.20   22.4    97    6.7   216      8.8    743.2 
  81    9:10   0.30   22.8    97    6.5   212      8.5    740.9 
  81    9:20   0.30   23.5    97    6.7   219      9.0    740.2 
  81    9:30   0.43   24.1    98    7.3   201      9.1    741.6 
  81    9:40   0.41   24.7    98    7.0   217      9.2    743.8 
  81    9:50   0.34   25.3    98    5.7   194      7.3    744.3 
  81   10:00   0.32   25.5    98    6.2   212     10.6    743.3 
  81   10:10   0.34   25.5    98    7.3   215      9.2    743.6 
  81   10:20   0.39   25.4    98    8.7   205     10.6    743.8 
  81   10:30   0.37   25.3    98    7.2   165      8.6    742.9 
  81   10:40   0.28   25.1    98    6.8   176      8.6    741.4 
  81   10:50   0.34   25.0    98    7.3   249      9.0    740.8 
  81   11:00   0.38   25.0    98    6.1   213      8.0    742.6 
  81   11:10   0.39   25.2    98    5.6   245      7.9    743.3 
  81   11:20   0.43   25.5    98    5.7   185      7.9    744.1 
  81   11:30   0.42   25.9    98    6.2   230      7.7    741.7 
  81   11:40   0.38   26.0    98    6.3   190      7.6    740.0 
  81   11:50   0.37   25.8    98    6.4   234      8.3    739.9 
  81   12:00   0.31   25.6    98    8.1   170      9.8    739.3 
  81   12:10   0.42   25.2    98    8.1   175      9.5    741.6 
  81   12:20   0.43   24.8    98    7.5   169      9.4    742.3 
  81   12:30   0.46   24.8    98    6.4   176      8.0    743.6 
  81   12:40   0.59   24.9    98    6.5   186      8.9    741.7 
  81   12:50   0.65   25.0    98    6.7   202      8.5    739.2 
  81   13:00   0.67   25.0    98   10.7   277     13.7    737.7 
  81   13:10   0.71   23.8    97   13.1   201     16.2    737.4 
  81   13:20   0.66   22.3    96   12.9   252     16.5    737.0 
  81   13:30   0.45   21.5    96   12.2   188     15.2    736.8 
  81   13:40   0.43   21.3    95   11.9   189     13.8    739.2 
  81   13:50   0.49   21.2    96   12.5   194     15.4    741.1 
  81   14:00   0.55   21.3    96   11.9   205     14.0    739.7 
  81   14:10   0.65   21.6    96   11.1   188     13.1    739.3 
  81   14:20   0.71   22.2    96   10.1   191     12.0    739.0 
  81   14:30   0.37   22.7    97    9.2   191     11.9    735.9 
  81   14:40   0.30   22.7    97    9.6   186     12.1    732.3 
  81   14:50   0.53   22.9    97   10.6   294     12.4    730.8 
  81   15:00   0.48   23.3    97   11.4   280     13.6    729.9 
  81   15:10   0.25   23.3    97    9.9   282     12.3    730.1 
  81   15:20   0.33   23.1    97   10.1   179     13.2    729.4 
  81   15:30   0.38   23.0    97   10.0   182     12.2    730.7 
  81   15:40   0.25   22.8    97    9.8   183     11.9    731.0 
  81   15:50   0.18   22.4    97    8.5   184     10.2    730.7 
  81   16:00   0.18   21.9    96    8.6   197     11.5    730.0 

Return to Slide Mountain graphs page.


Western Regional Climate Center,wrcc@dri.edu